createdAt,value
2022-10-17T00:02:33.523Z,11.27
2022-10-17T00:07:36.895Z,13.17
2022-10-17T00:12:41.775Z,14.67
2022-10-17T00:17:45.460Z,15.47
2022-10-17T00:22:48.864Z,15.77
2022-10-17T00:27:53.602Z,16.40
2022-10-17T00:32:56.918Z,15.33
2022-10-17T00:38:00.359Z,14.40
2022-10-17T00:43:05.107Z,18.47
2022-10-17T00:48:10.631Z,15.23
2022-10-17T00:53:15.178Z,16.10
2022-10-17T00:58:21.279Z,20.87
2022-10-17T01:03:25.134Z,18.70
2022-10-17T01:08:28.725Z,19.00
2022-10-17T01:13:39.348Z,14.67
2022-10-17T01:18:57.329Z,13.90
2022-10-17T01:24:26.787Z,13.43
2022-10-17T01:29:54.362Z,16.20
2022-10-17T01:35:02.873Z,13.80
2022-10-17T01:40:12.024Z,10.53
2022-10-17T01:45:21.025Z,13.40
2022-10-17T01:50:32.588Z,17.10
2022-10-17T01:55:40.231Z,14.10
2022-10-17T02:00:46.858Z,12.53
2022-10-17T02:05:51.728Z,10.83
2022-10-17T02:10:59.807Z,14.40
2022-10-17T02:16:15.178Z,9.90
2022-10-17T02:21:29.960Z,11.37
2022-10-17T02:26:38.539Z,12.43
2022-10-17T02:31:47.180Z,14.33
2022-10-17T02:36:54.656Z,12.93
2022-10-17T02:42:03.025Z,11.13
2022-10-17T02:47:14.185Z,11.07
2022-10-17T02:52:27.055Z,12.17
2022-10-17T02:57:35.506Z,12.77
2022-10-17T03:02:43.059Z,9.23
2022-10-17T03:07:48.083Z,13.23
2022-10-17T03:12:51.591Z,7.87
2022-10-17T03:17:56.981Z,7.87
2022-10-17T03:23:02.055Z,9.93
2022-10-17T03:28:06.675Z,9.63
2022-10-17T03:33:10.065Z,12.23
2022-10-17T03:38:15.201Z,11.07
2022-10-17T03:43:18.621Z,10.87
2022-10-17T03:48:22.897Z,8.67
2022-10-17T03:53:28.238Z,9.57
2022-10-17T03:58:32.723Z,9.80
2022-10-17T04:03:37.126Z,9.33
2022-10-17T04:08:42.856Z,11.93
2022-10-17T04:13:55.949Z,9.57
2022-10-17T04:19:01.436Z,12.57
2022-10-17T04:24:12.704Z,15.30
2022-10-17T04:29:25.644Z,9.33
2022-10-17T04:34:33.634Z,12.00
2022-10-17T04:39:38.758Z,6.17
2022-10-17T04:44:42.762Z,8.03
2022-10-17T04:49:46.260Z,9.00
2022-10-17T04:54:53.546Z,10.50
2022-10-17T04:59:58.452Z,9.97
2022-10-17T05:05:24.991Z,60.90
2022-10-17T05:10:31.767Z,45.00
2022-10-17T05:15:36.287Z,29.27
2022-10-17T05:20:40.011Z,34.60
2022-10-17T05:25:44.970Z,17.00
2022-10-17T05:30:48.411Z,9.30
2022-10-17T05:35:52.966Z,13.57
2022-10-17T05:41:00.562Z,12.73
2022-10-17T05:46:06.675Z,10.10
2022-10-17T05:51:11.995Z,11.57
2022-10-17T05:56:20.411Z,8.63
2022-10-17T06:01:25.868Z,15.00
2022-10-17T06:06:30.068Z,9.10
2022-10-17T06:11:35.404Z,10.00
2022-10-17T06:16:39.122Z,10.83
2022-10-17T06:21:42.676Z,7.83
2022-10-17T06:26:51.285Z,9.30
2022-10-17T06:31:57.466Z,9.50
2022-10-17T06:37:02.365Z,7.07
2022-10-17T06:42:08.719Z,7.67
2022-10-17T06:47:44.459Z,11.47
2022-10-17T06:53:03.491Z,5.57
2022-10-17T06:58:23.431Z,13.60
2022-10-17T07:03:50.006Z,11.87
2022-10-17T07:08:55.722Z,10.20
2022-10-17T07:14:00.977Z,9.67
2022-10-17T07:19:04.827Z,11.57
2022-10-17T07:24:12.470Z,6.97
2022-10-17T07:29:20.632Z,8.60
2022-10-17T07:34:35.505Z,10.47
2022-10-17T07:39:40.173Z,12.67
2022-10-17T07:44:47.473Z,7.07
2022-10-17T07:49:51.541Z,11.30
2022-10-17T07:54:54.995Z,8.60
2022-10-17T08:00:00.105Z,13.85
2022-10-17T08:05:03.474Z,11.70
2022-10-17T08:15:13.761Z,9.27
2022-10-17T08:20:17.308Z,9.85
2022-10-17T08:25:20.735Z,9.00
2022-10-17T08:30:25.791Z,11.48
2022-10-17T08:35:29.375Z,9.70
2022-10-17T08:40:33.878Z,8.68
2022-10-17T08:45:46.263Z,9.27
2022-10-17T08:50:54.258Z,9.98
2022-10-17T08:55:59.293Z,9.57
2022-10-17T09:01:13.274Z,7.78
2022-10-17T09:06:24.518Z,6.43
2022-10-17T09:11:50.125Z,9.57
2022-10-17T09:17:09.932Z,10.38
2022-10-17T09:22:18.406Z,8.15
2022-10-17T09:27:25.640Z,7.10
2022-10-17T09:32:30.603Z,6.03
2022-10-17T09:37:34.358Z,6.32
2022-10-17T09:42:38.306Z,10.65
2022-10-17T09:52:55.266Z,7.13
2022-10-17T09:58:00.281Z,7.60
2022-10-17T10:03:23.410Z,4.32
2022-10-17T10:08:30.225Z,9.13
2022-10-17T10:13:35.704Z,5.10
2022-10-17T10:18:40.622Z,6.70
2022-10-17T10:23:45.363Z,5.63
2022-10-17T10:28:55.483Z,7.93
2022-10-17T10:34:03.430Z,6.00
2022-10-17T10:39:07.968Z,6.55
2022-10-17T10:44:16.249Z,9.00
2022-10-17T10:49:35.785Z,7.72
2022-10-17T10:54:43.562Z,6.90
2022-10-17T10:59:58.432Z,5.70
2022-10-17T11:05:08.196Z,13.48
2022-10-17T11:10:18.922Z,12.57
2022-10-17T11:15:27.187Z,5.82
2022-10-17T11:20:39.705Z,7.38
2022-10-17T11:25:43.396Z,4.38
2022-10-17T11:30:51.450Z,7.93
2022-10-17T11:36:02.755Z,5.00
2022-10-17T11:41:09.126Z,6.70
2022-10-17T11:46:16.690Z,9.25
2022-10-17T11:56:52.860Z,8.65
2022-10-17T12:02:01.021Z,7.90
2022-10-17T12:07:16.944Z,7.60
2022-10-17T12:12:29.256Z,14.45
2022-10-17T12:17:37.003Z,5.30
2022-10-17T12:22:48.243Z,12.48
2022-10-17T12:27:52.480Z,6.05
2022-10-17T12:33:06.593Z,12.25
2022-10-17T12:38:28.736Z,7.65
2022-10-17T12:43:53.888Z,9.23
2022-10-17T12:49:02.668Z,11.10
2022-10-17T12:54:13.657Z,9.85
2022-10-17T12:59:19.577Z,5.18
2022-10-17T13:04:24.047Z,13.40
2022-10-17T13:09:31.457Z,14.48
2022-10-17T13:14:35.853Z,6.38
2022-10-17T13:19:43.675Z,8.40
2022-10-17T13:24:49.449Z,6.43
2022-10-17T13:29:53.088Z,6.80
2022-10-17T13:35:12.776Z,6.18
2022-10-17T13:40:40.751Z,7.50
2022-10-17T13:45:50.894Z,7.95
2022-10-17T13:51:00.362Z,7.57
2022-10-17T13:56:34.464Z,6.82
2022-10-17T14:01:39.608Z,5.38
2022-10-17T14:06:47.866Z,12.02
2022-10-17T14:12:02.994Z,7.82
2022-10-17T14:17:14.785Z,8.63
2022-10-17T14:22:25.549Z,6.95
2022-10-17T14:27:34.580Z,7.50
2022-10-17T14:32:39.118Z,6.40
2022-10-17T14:37:46.043Z,10.80
2022-10-17T14:42:52.108Z,7.63
2022-10-17T14:47:58.557Z,7.45
2022-10-17T14:53:05.372Z,6.68
2022-10-17T14:58:23.148Z,9.67
2022-10-17T15:03:27.217Z,8.70
2022-10-17T15:08:30.672Z,9.50
2022-10-17T15:13:41.020Z,10.37
2022-10-17T15:18:45.592Z,12.93
2022-10-17T15:23:49.107Z,11.77
2022-10-17T15:28:54.780Z,31.57
2022-10-17T15:33:58.436Z,20.93
2022-10-17T15:39:03.316Z,17.43
2022-10-17T15:44:08.798Z,12.03
2022-10-17T15:49:14.867Z,10.63
2022-10-17T15:54:18.252Z,11.10
2022-10-17T15:59:26.241Z,13.63
2022-10-17T16:04:30.732Z,11.27
2022-10-17T16:09:34.448Z,12.57
2022-10-17T16:14:39.238Z,52.87
2022-10-17T16:19:42.807Z,130.80
2022-10-17T16:24:46.481Z,102.60
2022-10-17T16:29:51.265Z,43.73
2022-10-17T16:34:54.711Z,26.23
2022-10-17T16:39:58.135Z,19.37
2022-10-17T16:45:03.516Z,24.13
2022-10-17T16:50:07.922Z,15.47
2022-10-17T16:55:12.072Z,18.57
2022-10-17T17:00:18.287Z,19.90
2022-10-17T17:05:21.646Z,21.00
2022-10-17T17:10:24.997Z,20.80
2022-10-17T17:15:29.800Z,23.60
2022-10-17T17:20:34.980Z,26.33
2022-10-17T17:25:39.465Z,19.93
2022-10-17T17:30:44.202Z,16.50
2022-10-17T17:35:47.633Z,14.47
2022-10-17T17:40:51.893Z,17.83
2022-10-17T17:45:57.018Z,17.07
2022-10-17T17:51:04.503Z,18.90
2022-10-17T17:56:10.266Z,16.63
2022-10-17T18:01:20.439Z,16.30
2022-10-17T18:06:24.250Z,17.93
2022-10-17T18:11:28.921Z,17.50
2022-10-17T18:16:35.423Z,20.33
2022-10-17T18:21:39.179Z,21.53
2022-10-17T18:26:42.556Z,21.53
2022-10-17T18:31:47.781Z,21.10
2022-10-17T18:36:52.894Z,18.00
2022-10-17T18:41:56.331Z,20.33
2022-10-17T18:47:04.100Z,15.87
2022-10-17T18:52:08.058Z,15.90
2022-10-17T18:57:11.400Z,20.13
2022-10-17T19:02:16.154Z,13.23
2022-10-17T19:07:20.262Z,20.77
2022-10-17T19:12:23.639Z,17.73
2022-10-17T19:17:28.780Z,14.67
2022-10-17T19:22:33.250Z,17.80
2022-10-17T19:27:37.602Z,15.70
2022-10-17T19:32:42.474Z,19.03
2022-10-17T19:37:46.109Z,20.80
2022-10-17T19:42:49.703Z,20.60
2022-10-17T19:47:54.504Z,24.27
2022-10-17T19:52:57.911Z,26.70
2022-10-17T19:58:02.803Z,25.90
2022-10-17T20:03:07.541Z,26.60
2022-10-17T20:08:10.949Z,25.50
2022-10-17T20:13:15.238Z,32.90
2022-10-17T20:18:20.316Z,30.27
2022-10-17T20:23:24.100Z,30.47
2022-10-17T20:28:27.742Z,25.30
2022-10-17T20:33:32.855Z,24.23
2022-10-17T20:38:36.868Z,21.33
2022-10-17T20:43:40.523Z,18.47
2022-10-17T20:48:45.377Z,20.13
2022-10-17T20:53:49.326Z,23.77
2022-10-17T20:58:54.731Z,17.70
2022-10-17T21:04:10.606Z,17.80
2022-10-17T21:09:23.501Z,18.33
2022-10-17T21:14:26.991Z,16.33
2022-10-17T21:19:31.789Z,17.37
2022-10-17T21:24:35.196Z,16.43
2022-10-17T21:29:38.491Z,16.40
2022-10-17T21:34:43.570Z,17.70
2022-10-17T21:39:46.961Z,18.90
2022-10-17T21:44:50.702Z,16.50
2022-10-17T21:49:56.206Z,17.80
2022-10-17T21:54:59.811Z,16.83
2022-10-17T22:00:03.264Z,17.23
2022-10-17T22:05:17.581Z,18.87
2022-10-17T22:10:20.977Z,16.53
2022-10-17T22:15:24.690Z,15.20
2022-10-17T22:20:29.553Z,17.93
2022-10-17T22:25:33.044Z,29.03
2022-10-17T22:30:36.765Z,34.33
2022-10-17T22:35:41.968Z,20.83
2022-10-17T22:40:46.303Z,26.83
2022-10-17T22:45:56.728Z,26.50
2022-10-17T22:51:01.906Z,19.77
2022-10-17T22:56:08.467Z,24.17
2022-10-17T23:01:16.152Z,28.23
2022-10-17T23:06:22.192Z,26.17
2022-10-17T23:11:25.647Z,26.10
2022-10-17T23:16:29.016Z,32.07
2022-10-17T23:21:34.078Z,26.77
2022-10-17T23:26:37.477Z,27.57
2022-10-17T23:31:41.135Z,25.73
2022-10-17T23:36:45.913Z,23.03
2022-10-17T23:41:49.297Z,20.67
2022-10-17T23:46:52.657Z,17.87
2022-10-17T23:51:57.391Z,16.77
2022-10-17T23:57:00.778Z,18.70
